createdAt,value
2022-10-10T00:00:19.939Z,14.46289063
2022-10-10T00:01:20.728Z,14.48303223
2022-10-10T00:02:21.290Z,14.48303223
2022-10-10T00:03:21.992Z,14.45281982
2022-10-10T00:04:22.638Z,14.45281982
2022-10-10T00:05:23.318Z,14.49310303
2022-10-10T00:06:54.769Z,14.44274902
2022-10-10T00:07:55.419Z,14.44274902
2022-10-10T00:08:56.137Z,14.42260742
2022-10-10T00:09:56.859Z,14.45281982
2022-10-10T00:10:58.324Z,14.48303223
2022-10-10T00:11:59.060Z,14.49310303
2022-10-10T00:12:59.695Z,14.49310303
2022-10-10T00:14:00.298Z,14.49310303
2022-10-10T00:15:01.144Z,14.52331543
2022-10-10T00:16:01.869Z,14.52331543
2022-10-10T00:17:02.633Z,14.49310303
2022-10-10T00:18:03.985Z,14.48303223
2022-10-10T00:19:04.610Z,14.44274902
2022-10-10T00:20:05.263Z,14.44274902
2022-10-10T00:21:06.942Z,14.42260742
2022-10-10T00:22:07.625Z,14.41253662
2022-10-10T00:23:08.334Z,14.39239502
2022-10-10T00:24:08.928Z,14.38232422
2022-10-10T00:25:10.616Z,14.39239502
2022-10-10T00:26:16.190Z,14.39239502
2022-10-10T00:27:11.895Z,14.38232422
2022-10-10T00:28:12.801Z,14.36218262
2022-10-10T00:29:13.333Z,14.36218262
2022-10-10T00:30:14.129Z,14.36218262
2022-10-10T00:31:15.312Z,14.36218262
2022-10-10T00:32:16.132Z,14.35211182
2022-10-10T00:33:17.035Z,14.36218262
2022-10-10T00:34:17.808Z,14.34204102
2022-10-10T00:35:18.453Z,14.38232422
2022-10-10T00:36:19.017Z,14.36218262
2022-10-10T00:37:19.742Z,14.36218262
2022-10-10T00:38:20.788Z,14.36218262
2022-10-10T00:39:21.636Z,14.35211182
2022-10-10T00:40:22.234Z,14.31182861
2022-10-10T00:41:54.461Z,14.31182861
2022-10-10T00:42:55.208Z,14.35211182
2022-10-10T00:43:55.910Z,14.34204102
2022-10-10T00:44:56.595Z,14.31182861
2022-10-10T00:45:57.201Z,14.31182861
2022-10-10T00:46:57.838Z,14.30175781
2022-10-10T00:47:58.606Z,14.30175781
2022-10-10T00:48:59.987Z,14.29168701
2022-10-10T00:50:00.711Z,14.29168701
2022-10-10T00:51:01.983Z,14.29168701
2022-10-10T00:52:02.581Z,14.27154541
2022-10-10T00:53:03.374Z,14.29168701
2022-10-10T00:54:04.351Z,14.27154541
2022-10-10T00:55:05.306Z,14.24133301
2022-10-10T00:56:06.862Z,14.24133301
2022-10-10T00:57:07.437Z,14.23126221
2022-10-10T00:58:08.031Z,14.23126221
2022-10-10T00:59:08.893Z,14.24133301
2022-10-10T01:00:09.846Z,14.26147461
2022-10-10T01:01:11.941Z,14.27154541
2022-10-10T01:02:12.447Z,14.29168701
2022-10-10T01:03:13.936Z,14.29168701
2022-10-10T01:04:14.804Z,14.31182861
2022-10-10T01:05:15.910Z,14.31182861
2022-10-10T01:06:16.781Z,14.34204102
2022-10-10T01:07:17.443Z,14.34204102
2022-10-10T01:08:18.038Z,14.34204102
2022-10-10T01:09:19.110Z,14.35211182
2022-10-10T01:10:20.114Z,14.35211182
2022-10-10T01:11:22.021Z,14.35211182
2022-10-10T01:12:22.570Z,14.31182861
2022-10-10T01:13:53.843Z,14.31182861
2022-10-10T01:14:54.753Z,14.30175781
2022-10-10T01:15:55.514Z,14.31182861
2022-10-10T01:16:56.207Z,14.30175781
2022-10-10T01:17:56.749Z,14.31182861
2022-10-10T01:18:57.339Z,14.34204102
2022-10-10T01:19:58.237Z,14.34204102
2022-10-10T01:21:00.059Z,14.35211182
2022-10-10T01:22:01.986Z,14.35211182
2022-10-10T01:23:02.604Z,14.35211182
2022-10-10T01:24:03.134Z,14.35211182
2022-10-10T01:25:03.867Z,14.34204102
2022-10-10T01:26:05.652Z,14.35211182
2022-10-10T01:27:06.593Z,14.35211182
2022-10-10T01:28:07.647Z,14.35211182
2022-10-10T01:29:08.336Z,14.36218262
2022-10-10T01:30:09.024Z,14.36218262
2022-10-10T01:31:10.594Z,14.38232422
2022-10-10T01:32:11.347Z,14.36218262
2022-10-10T01:33:11.956Z,14.36218262
2022-10-10T01:34:12.493Z,14.36218262
2022-10-10T01:35:13.200Z,14.35211182
2022-10-10T01:36:14.175Z,14.36218262
2022-10-10T01:37:15.072Z,14.38232422
2022-10-10T01:38:15.695Z,14.38232422
2022-10-10T01:39:16.369Z,14.39239502
2022-10-10T01:40:17.130Z,14.39239502
2022-10-10T01:41:19.041Z,14.39239502
2022-10-10T01:42:19.705Z,14.39239502
2022-10-10T01:43:20.751Z,14.41253662
2022-10-10T01:44:21.372Z,14.39239502
2022-10-10T01:45:22.008Z,14.41253662
2022-10-10T01:46:23.228Z,14.38232422
2022-10-10T01:47:54.228Z,14.35211182
2022-10-10T01:48:55.491Z,14.36218262
2022-10-10T01:49:56.088Z,14.35211182
2022-10-10T01:50:56.739Z,14.36218262
2022-10-10T01:51:58.464Z,14.36218262
2022-10-10T01:53:00.021Z,14.38232422
2022-10-10T01:54:00.757Z,14.38232422
2022-10-10T01:55:01.373Z,14.39239502
2022-10-10T01:56:01.908Z,14.38232422
2022-10-10T01:57:02.748Z,14.36218262
2022-10-10T01:58:04.063Z,14.38232422
2022-10-10T01:59:05.295Z,14.38232422
2022-10-10T02:00:06.094Z,14.36218262
2022-10-10T02:01:07.483Z,14.35211182
2022-10-10T02:02:08.058Z,14.35211182
2022-10-10T02:03:08.655Z,14.31182861
2022-10-10T02:04:09.377Z,14.34204102
2022-10-10T02:05:10.022Z,14.31182861
2022-10-10T02:06:10.742Z,14.31182861
2022-10-10T02:07:11.619Z,14.30175781
2022-10-10T02:08:12.201Z,14.29168701
2022-10-10T02:09:12.907Z,14.29168701
2022-10-10T02:10:13.598Z,14.27154541
2022-10-10T02:11:14.990Z,14.26147461
2022-10-10T02:12:15.556Z,14.24133301
2022-10-10T02:13:16.059Z,14.24133301
2022-10-10T02:14:16.793Z,14.27154541
2022-10-10T02:15:18.124Z,14.27154541
2022-10-10T02:16:18.958Z,14.26147461
2022-10-10T02:17:19.856Z,14.27154541
2022-10-10T02:18:20.658Z,14.27154541
2022-10-10T02:19:21.376Z,14.29168701
2022-10-10T02:20:22.606Z,14.29168701
2022-10-10T02:21:54.462Z,14.27154541
2022-10-10T02:22:55.115Z,14.26147461
2022-10-10T02:23:55.647Z,14.27154541
2022-10-10T02:24:56.297Z,14.26147461
2022-10-10T02:25:58.032Z,14.24133301
2022-10-10T02:26:58.803Z,14.24133301
2022-10-10T02:27:59.646Z,14.27154541
2022-10-10T02:29:00.231Z,14.26147461
2022-10-10T02:30:00.820Z,14.26147461
2022-10-10T02:31:01.542Z,14.27154541
2022-10-10T02:32:03.021Z,14.27154541
2022-10-10T02:33:03.904Z,14.26147461
2022-10-10T02:34:04.506Z,14.29168701
2022-10-10T02:35:05.039Z,14.26147461
2022-10-10T02:36:05.755Z,14.26147461
2022-10-10T02:37:06.575Z,14.27154541
2022-10-10T02:38:07.451Z,14.24133301
2022-10-10T02:39:08.751Z,14.26147461
2022-10-10T02:40:09.385Z,14.24133301
2022-10-10T02:41:10.028Z,14.26147461
2022-10-10T02:42:11.458Z,14.26147461
2022-10-10T02:43:12.203Z,14.26147461
2022-10-10T02:44:12.771Z,14.27154541
2022-10-10T02:45:13.400Z,14.29168701
2022-10-10T02:46:14.358Z,14.29168701
2022-10-10T02:47:15.259Z,14.27154541
2022-10-10T02:48:16.031Z,14.27154541
2022-10-10T02:49:16.661Z,14.26147461
2022-10-10T02:50:17.230Z,14.26147461
2022-10-10T02:51:18.012Z,14.26147461
2022-10-10T02:52:19.404Z,14.29168701
2022-10-10T02:53:20.103Z,14.26147461
2022-10-10T02:54:20.832Z,14.24133301
2022-10-10T02:55:21.607Z,14.24133301
2022-10-10T02:56:53.471Z,14.24133301
2022-10-10T02:57:54.421Z,14.24133301
2022-10-10T02:58:55.107Z,14.24133301
2022-10-10T02:59:55.690Z,14.24133301
2022-10-10T03:00:56.649Z,14.24133301
2022-10-10T03:01:57.987Z,14.24133301
2022-10-10T03:02:59.480Z,14.24133301
2022-10-10T03:03:59.970Z,14.24133301
2022-10-10T03:05:00.650Z,14.23126221
2022-10-10T03:06:01.391Z,14.23126221
2022-10-10T03:07:02.212Z,14.21112061
2022-10-10T03:08:02.766Z,14.21112061
2022-10-10T03:09:03.296Z,14.21112061
2022-10-10T03:10:04.058Z,14.23126221
2022-10-10T03:11:04.848Z,14.23126221
2022-10-10T03:12:06.423Z,14.2010498
2022-10-10T03:13:06.997Z,14.21112061
2022-10-10T03:14:07.672Z,14.21112061
2022-10-10T03:15:11.701Z,14.23126221
2022-10-10T03:16:09.259Z,14.23126221
2022-10-10T03:17:10.087Z,14.23126221
2022-10-10T03:18:10.634Z,14.23126221
2022-10-10T03:19:11.204Z,14.24133301
2022-10-10T03:20:12.084Z,14.24133301
2022-10-10T03:21:12.921Z,14.23126221
2022-10-10T03:22:14.343Z,14.24133301
2022-10-10T03:23:14.895Z,14.26147461
2022-10-10T03:24:15.542Z,14.27154541
2022-10-10T03:25:16.448Z,14.27154541
2022-10-10T03:26:17.252Z,14.29168701
2022-10-10T03:27:17.995Z,14.27154541
2022-10-10T03:28:19.274Z,14.27154541
2022-10-10T03:29:19.883Z,14.29168701
2022-10-10T03:30:21.091Z,14.30175781
2022-10-10T03:31:53.142Z,14.29168701
2022-10-10T03:32:54.078Z,14.29168701
2022-10-10T03:33:54.389Z,14.31182861
2022-10-10T03:34:55.311Z,14.31182861
2022-10-10T03:35:56.374Z,14.30175781
2022-10-10T03:36:57.121Z,14.31182861
2022-10-10T03:37:57.713Z,14.34204102
2022-10-10T03:38:58.300Z,14.34204102
2022-10-10T03:39:59.241Z,14.34204102
2022-10-10T03:41:00.137Z,14.34204102
2022-10-10T03:42:01.554Z,14.35211182
2022-10-10T03:43:02.150Z,14.35211182
2022-10-10T03:44:02.694Z,14.34204102
2022-10-10T03:45:03.454Z,14.31182861
2022-10-10T03:46:04.805Z,14.34204102
2022-10-10T03:47:05.561Z,14.34204102
2022-10-10T03:48:06.187Z,14.35211182
2022-10-10T03:49:06.727Z,14.31182861
2022-10-10T03:50:08.265Z,14.34204102
2022-10-10T03:51:08.812Z,14.30175781
2022-10-10T03:52:09.993Z,14.30175781
2022-10-10T03:53:10.514Z,14.27154541
2022-10-10T03:54:11.102Z,14.27154541
2022-10-10T03:55:11.716Z,14.27154541
2022-10-10T03:56:13.635Z,14.29168701
2022-10-10T03:57:14.172Z,14.29168701
2022-10-10T03:58:14.698Z,14.29168701
2022-10-10T03:59:15.289Z,14.30175781
2022-10-10T04:00:16.283Z,14.30175781
2022-10-10T04:01:17.209Z,14.29168701
2022-10-10T04:02:18.486Z,14.29168701
2022-10-10T04:03:18.996Z,14.30175781
2022-10-10T04:04:19.519Z,14.31182861
2022-10-10T04:05:20.045Z,14.30175781
2022-10-10T04:06:21.281Z,14.34204102
2022-10-10T04:07:52.063Z,14.35211182
2022-10-10T04:08:53.454Z,14.35211182
2022-10-10T04:09:54.400Z,14.35211182
2022-10-10T04:10:55.213Z,14.34204102
2022-10-10T04:11:55.987Z,14.35211182
2022-10-10T04:12:56.419Z,14.34204102
2022-10-10T04:13:56.930Z,14.31182861
2022-10-10T04:14:58.336Z,14.30175781
2022-10-10T04:15:59.158Z,14.31182861
2022-10-10T04:17:03.062Z,14.31182861
2022-10-10T04:18:00.791Z,14.31182861
2022-10-10T04:19:01.425Z,14.30175781
2022-10-10T04:20:02.015Z,14.30175781
2022-10-10T04:21:02.791Z,14.31182861
2022-10-10T04:22:05.973Z,14.31182861
2022-10-10T04:23:04.500Z,14.34204102
2022-10-10T04:24:05.229Z,14.31182861
2022-10-10T04:25:05.983Z,14.30175781
2022-10-10T04:26:06.600Z,14.30175781
2022-10-10T04:27:07.155Z,14.30175781
2022-10-10T04:28:07.818Z,14.31182861
2022-10-10T04:29:08.767Z,14.34204102
2022-10-10T04:30:09.364Z,14.31182861
2022-10-10T04:31:09.905Z,14.34204102
2022-10-10T04:32:11.030Z,14.34204102
2022-10-10T04:33:11.677Z,14.36218262
2022-10-10T04:34:12.585Z,14.38232422
2022-10-10T04:35:13.386Z,14.36218262
2022-10-10T04:36:13.976Z,14.34204102
2022-10-10T04:37:14.539Z,14.35211182
2022-10-10T04:38:15.114Z,14.35211182
2022-10-10T04:39:15.892Z,14.36218262
2022-10-10T04:40:16.638Z,14.35211182
2022-10-10T04:41:17.213Z,14.36218262
2022-10-10T04:42:18.487Z,14.38232422
2022-10-10T04:43:19.039Z,14.39239502
2022-10-10T04:44:19.519Z,14.38232422
2022-10-10T04:45:20.165Z,14.38232422
2022-10-10T04:46:51.174Z,14.36218262
2022-10-10T04:47:51.738Z,14.39239502
2022-10-10T04:48:52.452Z,14.38232422
2022-10-10T04:49:54.053Z,14.35211182
2022-10-10T04:50:54.687Z,14.34204102
2022-10-10T04:51:55.155Z,14.35211182
2022-10-10T04:52:56.309Z,14.34204102
2022-10-10T04:53:57.114Z,14.35211182
2022-10-10T04:54:57.872Z,14.35211182
2022-10-10T04:55:58.460Z,14.38232422
2022-10-10T04:56:58.946Z,14.38232422
2022-10-10T04:57:59.457Z,14.38232422
2022-10-10T04:59:00.761Z,14.36218262
2022-10-10T05:00:01.303Z,14.36218262
2022-10-10T05:01:01.965Z,14.34204102
2022-10-10T05:02:02.388Z,14.34204102
2022-10-10T05:03:03.617Z,14.31182861
2022-10-10T05:04:04.343Z,14.34204102
2022-10-10T05:05:04.981Z,14.34204102
2022-10-10T05:06:05.563Z,14.35211182
2022-10-10T05:07:06.126Z,14.34204102
2022-10-10T05:08:06.731Z,14.34204102
2022-10-10T05:09:08.089Z,14.34204102
2022-10-10T05:10:08.656Z,14.35211182
2022-10-10T05:11:09.257Z,14.35211182
2022-10-10T05:12:09.758Z,14.36218262
2022-10-10T05:13:11.261Z,14.38232422
2022-10-10T05:14:11.961Z,14.36218262
2022-10-10T05:15:12.513Z,14.36218262
2022-10-10T05:16:13.054Z,14.36218262
2022-10-10T05:17:13.605Z,14.38232422
2022-10-10T05:18:14.368Z,14.36218262
2022-10-10T05:19:14.998Z,14.35211182
2022-10-10T05:20:15.545Z,14.36218262
2022-10-10T05:21:16.063Z,14.35211182
2022-10-10T05:22:17.481Z,14.34204102
2022-10-10T05:23:18.988Z,14.35211182
2022-10-10T05:24:19.649Z,14.35211182
2022-10-10T05:25:50.928Z,14.36218262
2022-10-10T05:26:51.443Z,14.38232422
2022-10-10T05:27:52.158Z,14.36218262
2022-10-10T05:28:53.558Z,14.36218262
2022-10-10T05:29:54.030Z,14.36218262
2022-10-10T05:30:54.546Z,14.35211182
2022-10-10T05:31:55.241Z,14.34204102
2022-10-10T05:32:56.508Z,14.34204102
2022-10-10T05:33:57.295Z,14.31182861
2022-10-10T05:34:57.808Z,14.30175781
2022-10-10T05:35:58.281Z,14.30175781
2022-10-10T05:36:59.227Z,14.31182861
2022-10-10T05:38:00.098Z,14.31182861
2022-10-10T05:39:00.901Z,14.29168701
2022-10-10T05:40:01.668Z,14.29168701
2022-10-10T05:41:02.553Z,14.29168701
2022-10-10T05:42:03.323Z,14.29168701
2022-10-10T05:43:05.036Z,14.27154541
2022-10-10T05:44:05.855Z,14.29168701
2022-10-10T05:45:06.414Z,14.27154541
2022-10-10T05:46:07.121Z,14.27154541
2022-10-10T05:47:07.791Z,14.27154541
2022-10-10T05:48:08.537Z,14.26147461
2022-10-10T05:49:10.632Z,14.27154541
2022-10-10T05:50:11.180Z,14.26147461
2022-10-10T05:51:11.717Z,14.26147461
2022-10-10T05:52:12.274Z,14.26147461
2022-10-10T05:53:13.807Z,14.24133301
2022-10-10T05:54:14.384Z,14.24133301
2022-10-10T05:55:14.974Z,14.27154541
2022-10-10T05:56:15.533Z,14.27154541
2022-10-10T05:57:16.540Z,14.29168701
2022-10-10T05:58:17.272Z,14.27154541
2022-10-10T05:59:17.822Z,14.30175781
2022-10-10T06:00:18.348Z,14.30175781
2022-10-10T06:01:18.922Z,14.30175781
2022-10-10T06:02:19.949Z,14.34204102
2022-10-10T06:03:51.504Z,14.31182861
2022-10-10T06:04:52.097Z,14.31182861
2022-10-10T06:05:52.641Z,14.34204102
2022-10-10T06:06:53.137Z,14.34204102
2022-10-10T06:08:05.721Z,14.34204102
2022-10-10T06:08:54.295Z,14.35211182
2022-10-10T06:09:55.774Z,14.36218262
2022-10-10T06:10:56.306Z,14.36218262
2022-10-10T06:11:56.900Z,14.35211182
2022-10-10T06:12:58.002Z,14.34204102
2022-10-10T06:13:58.600Z,14.35211182
2022-10-10T06:14:59.200Z,14.35211182
2022-10-10T06:15:59.771Z,14.35211182
2022-10-10T06:17:00.291Z,14.36218262
2022-10-10T06:18:00.852Z,14.36218262
2022-10-10T06:19:01.645Z,14.38232422
2022-10-10T06:20:02.197Z,14.38232422
2022-10-10T06:21:02.714Z,14.38232422
2022-10-10T06:22:03.997Z,14.39239502
2022-10-10T06:23:05.530Z,14.38232422
2022-10-10T06:24:06.075Z,14.41253662
2022-10-10T06:25:15.267Z,14.41253662
2022-10-10T06:26:07.179Z,14.44274902
2022-10-10T06:27:07.717Z,14.45281982
2022-10-10T06:28:08.328Z,14.46289063
2022-10-10T06:29:09.476Z,14.48303223
2022-10-10T06:30:10.002Z,14.46289063
2022-10-10T06:31:10.570Z,14.48303223
2022-10-10T06:32:11.131Z,14.48303223
2022-10-10T06:33:12.551Z,14.48303223
2022-10-10T06:34:13.037Z,14.49310303
2022-10-10T06:35:13.603Z,14.49310303
2022-10-10T06:36:14.101Z,14.52331543
2022-10-10T06:37:14.630Z,14.52331543
2022-10-10T06:38:15.188Z,14.53338623
2022-10-10T06:39:15.713Z,14.54345703
2022-10-10T06:40:16.268Z,14.53338623
2022-10-10T06:41:16.833Z,14.54345703
2022-10-10T06:42:17.369Z,14.54345703
2022-10-10T06:43:18.016Z,14.59381104
2022-10-10T06:44:49.878Z,14.60388184
2022-10-10T06:45:50.571Z,14.61395264
2022-10-10T06:46:51.122Z,14.64416504
2022-10-10T06:47:51.669Z,14.64416504
2022-10-10T06:48:52.240Z,14.63409424
2022-10-10T06:49:52.800Z,14.66430664
2022-10-10T06:50:54.258Z,14.66430664
2022-10-10T06:51:54.806Z,14.66430664
2022-10-10T06:52:55.369Z,14.66430664
2022-10-10T06:53:56.787Z,14.66430664
2022-10-10T06:54:57.328Z,14.64416504
2022-10-10T06:55:57.847Z,14.64416504
2022-10-10T06:56:58.368Z,14.66430664
2022-10-10T06:57:58.907Z,14.66430664
2022-10-10T06:58:59.506Z,14.67437744
2022-10-10T07:00:00.759Z,14.69451904
2022-10-10T07:01:01.290Z,14.69451904
2022-10-10T07:02:01.794Z,14.67437744
2022-10-10T07:03:02.339Z,14.69451904
2022-10-10T07:04:03.786Z,14.69451904
2022-10-10T07:05:04.325Z,14.69451904
2022-10-10T07:06:04.872Z,14.69451904
2022-10-10T07:07:05.466Z,14.69451904
2022-10-10T07:08:06.003Z,14.71466064
2022-10-10T07:09:07.340Z,14.72473145
2022-10-10T07:10:07.873Z,14.74487305
2022-10-10T07:11:08.425Z,14.78515625
2022-10-10T07:12:09.020Z,14.79522705
2022-10-10T07:13:09.547Z,14.82543945
2022-10-10T07:14:10.098Z,14.84558105
2022-10-10T07:15:10.677Z,14.85565186
2022-10-10T07:16:11.252Z,14.86572266
2022-10-10T07:17:11.863Z,14.89593506
2022-10-10T07:18:13.026Z,14.90600586
2022-10-10T07:19:13.604Z,14.90600586
2022-10-10T07:20:14.172Z,14.93621826
2022-10-10T07:21:14.703Z,14.94628906
2022-10-10T07:22:15.294Z,14.94628906
2022-10-10T07:23:16.477Z,14.97650146
2022-10-10T07:24:17.023Z,14.99664307
2022-10-10T07:25:17.603Z,14.99664307
2022-10-10T07:26:18.234Z,15.02685547
2022-10-10T07:27:49.290Z,15.03692627
2022-10-10T07:28:49.809Z,15.03692627
2022-10-10T07:29:50.726Z,15.03692627
2022-10-10T07:30:51.136Z,15.04699707
2022-10-10T07:31:51.711Z,15.04699707
2022-10-10T07:32:52.836Z,15.06713867
2022-10-10T07:33:53.931Z,15.08728027
2022-10-10T07:34:54.566Z,15.10742188
2022-10-10T07:35:55.101Z,15.10742188
2022-10-10T07:36:55.667Z,15.11749268
2022-10-10T07:37:56.252Z,15.14770508
2022-10-10T07:38:56.885Z,15.14770508
2022-10-10T07:39:58.410Z,15.17791748
2022-10-10T07:40:58.922Z,15.15777588
2022-10-10T07:41:59.494Z,15.17791748
2022-10-10T07:43:01.029Z,15.18798828
2022-10-10T07:44:02.561Z,15.17791748
2022-10-10T07:45:03.140Z,15.18798828
2022-10-10T07:46:05.782Z,15.18798828
2022-10-10T07:47:04.170Z,15.19805908
2022-10-10T07:48:04.735Z,15.21820068
2022-10-10T07:49:05.340Z,15.22827148
2022-10-10T07:50:05.929Z,15.22827148
2022-10-10T07:51:06.493Z,15.24841309
2022-10-10T07:52:07.819Z,15.24841309
2022-10-10T07:53:08.388Z,15.24841309
2022-10-10T07:54:09.826Z,15.26855469
2022-10-10T07:55:10.416Z,15.27862549
2022-10-10T07:56:11.001Z,15.30883789
2022-10-10T07:57:11.579Z,15.30883789
2022-10-10T07:58:12.194Z,15.30883789
2022-10-10T07:59:12.730Z,15.32897949
2022-10-10T08:00:13.305Z,15.33905029
2022-10-10T08:01:13.791Z,15.34912109
2022-10-10T08:02:14.386Z,15.3692627
2022-10-10T08:03:14.877Z,15.3994751
2022-10-10T08:04:16.312Z,15.4095459
2022-10-10T08:05:16.870Z,15.4296875
2022-10-10T08:06:17.458Z,15.4598999
2022-10-10T08:07:18.436Z,15.4598999
2022-10-10T08:08:51.226Z,15.4901123
2022-10-10T08:09:50.988Z,15.4901123
2022-10-10T08:10:51.552Z,15.51025391
2022-10-10T08:11:52.046Z,15.53039551
2022-10-10T08:12:52.579Z,15.56060791
2022-10-10T08:13:54.001Z,15.58074951
2022-10-10T08:14:54.583Z,15.59082031
2022-10-10T08:15:55.204Z,15.62103271
2022-10-10T08:16:55.735Z,15.64117432
2022-10-10T08:17:56.342Z,15.66131592
2022-10-10T08:18:56.875Z,15.67138672
2022-10-10T08:19:57.422Z,15.67138672
2022-10-10T08:20:58.022Z,15.68145752
2022-10-10T08:21:59.525Z,15.70159912
2022-10-10T08:23:00.097Z,15.71166992
2022-10-10T08:24:01.516Z,15.74188232
2022-10-10T08:25:02.089Z,15.76202393
2022-10-10T08:26:02.594Z,15.76202393
2022-10-10T08:27:03.111Z,15.80230713
2022-10-10T08:28:04.552Z,15.77209473
2022-10-10T08:29:05.072Z,15.81237793
2022-10-10T08:30:05.589Z,15.81237793
2022-10-10T08:31:06.243Z,15.84259033
2022-10-10T08:32:06.767Z,15.85266113
2022-10-10T08:33:07.285Z,15.86273193
2022-10-10T08:34:08.534Z,15.86273193
2022-10-10T08:35:09.067Z,15.88287354
2022-10-10T08:36:09.615Z,15.89294434
2022-10-10T08:37:10.133Z,15.91308594
2022-10-10T08:38:10.691Z,15.93322754
2022-10-10T08:39:11.270Z,15.95336914
2022-10-10T08:40:11.826Z,15.96343994
2022-10-10T08:41:12.366Z,15.99365234
2022-10-10T08:42:12.875Z,16.01379395
2022-10-10T08:43:13.407Z,16.01379395
2022-10-10T08:44:14.486Z,16.04400635
2022-10-10T08:45:15.013Z,16.04400635
2022-10-10T08:46:15.623Z,16.06414795
2022-10-10T08:47:16.226Z,16.06414795
2022-10-10T08:48:16.706Z,16.07421875
2022-10-10T08:49:17.233Z,16.07421875
2022-10-10T08:50:48.375Z,16.07421875
2022-10-10T08:51:49.503Z,16.07421875
2022-10-10T08:52:50.418Z,16.08428955
2022-10-10T08:53:51.562Z,16.10443115
2022-10-10T08:54:57.474Z,16.11450195
2022-10-10T08:55:52.628Z,16.13464355
2022-10-10T08:56:53.188Z,16.14471436
2022-10-10T08:57:54.512Z,16.16485596
2022-10-10T08:58:55.067Z,16.21520996
2022-10-10T08:59:55.651Z,16.22528076
2022-10-10T09:00:56.259Z,16.26556396
2022-10-10T09:02:18.800Z,16.26556396
2022-10-10T09:02:57.372Z,16.28570557
2022-10-10T09:03:58.502Z,16.28570557
2022-10-10T09:04:59.900Z,16.28570557
2022-10-10T09:06:00.644Z,16.28570557
2022-10-10T09:07:01.185Z,16.25549316
2022-10-10T09:08:01.708Z,16.25549316
2022-10-10T09:09:02.342Z,16.25549316
2022-10-10T09:10:02.974Z,16.24542236
2022-10-10T09:11:03.685Z,16.22528076
2022-10-10T09:12:04.739Z,16.25549316
2022-10-10T09:13:05.259Z,16.25549316
2022-10-10T09:14:06.601Z,16.25549316
2022-10-10T09:15:07.299Z,16.26556396
2022-10-10T09:16:07.995Z,16.29577637
2022-10-10T09:17:08.561Z,16.32598877
2022-10-10T09:18:09.024Z,16.33605957
2022-10-10T09:19:11.607Z,16.36627197
2022-10-10T09:20:10.328Z,16.39648438
2022-10-10T09:21:11.505Z,16.40655518
2022-10-10T09:22:12.015Z,16.40655518
2022-10-10T09:23:12.494Z,16.44683838
2022-10-10T09:24:14.028Z,16.44683838
2022-10-10T09:25:14.730Z,16.46697998
2022-10-10T09:26:15.346Z,16.46697998
2022-10-10T09:27:15.955Z,16.49719238
2022-10-10T09:28:16.513Z,16.50726318
2022-10-10T09:29:17.742Z,16.54754639
2022-10-10T09:30:48.769Z,16.58782959
2022-10-10T09:31:49.369Z,16.59790039
2022-10-10T09:32:50.769Z,16.64825439
2022-10-10T09:33:51.250Z,16.6583252
2022-10-10T09:34:52.285Z,16.668396
2022-10-10T09:35:52.751Z,16.6885376
2022-10-10T09:36:57.236Z,16.7288208
2022-10-10T09:37:53.752Z,16.769104
2022-10-10T09:38:54.255Z,16.7791748
2022-10-10T09:39:54.718Z,16.79931641
2022-10-10T09:40:55.780Z,16.81945801
2022-10-10T09:41:55.765Z,16.83959961
2022-10-10T09:42:56.276Z,16.87988281
2022-10-10T09:43:57.793Z,16.87988281
2022-10-10T09:44:59.253Z,16.87988281
2022-10-10T09:45:59.753Z,16.91009521
2022-10-10T09:47:00.233Z,16.91009521
2022-10-10T09:48:00.761Z,16.92016602
2022-10-10T09:49:01.337Z,16.92016602
2022-10-10T09:50:01.829Z,16.95037842
2022-10-10T09:51:02.324Z,16.92016602
2022-10-10T09:52:03.482Z,16.92016602
2022-10-10T09:53:04.005Z,16.90002441
2022-10-10T09:54:04.521Z,16.86981201
2022-10-10T09:55:04.983Z,16.80938721
2022-10-10T09:56:06.230Z,16.81945801
2022-10-10T09:57:06.690Z,16.80938721
2022-10-10T09:58:07.302Z,16.7791748
2022-10-10T09:59:07.805Z,16.769104
2022-10-10T10:00:08.304Z,16.7791748
2022-10-10T10:01:08.861Z,16.79931641
2022-10-10T10:02:09.255Z,16.80938721
2022-10-10T10:03:09.823Z,16.83959961
2022-10-10T10:04:26.581Z,16.86981201
2022-10-10T10:05:11.746Z,16.91009521
2022-10-10T10:06:12.237Z,16.98059082
2022-10-10T10:07:12.726Z,17.02087402
2022-10-10T10:08:13.239Z,17.05108643
2022-10-10T10:09:13.853Z,17.06115723
2022-10-10T10:10:14.350Z,17.07122803
2022-10-10T10:11:14.895Z,17.10144043
2022-10-10T10:12:15.352Z,17.12158203
2022-10-10T10:13:15.864Z,17.15179443
2022-10-10T10:14:16.364Z,17.22229004
2022-10-10T10:15:48.063Z,17.25250244
2022-10-10T10:16:48.616Z,17.27264404
2022-10-10T10:17:49.151Z,17.28271484
2022-10-10T10:18:49.709Z,17.25250244
2022-10-10T10:19:50.334Z,17.24243164
2022-10-10T10:20:51.027Z,17.25250244
2022-10-10T10:21:52.248Z,17.24243164
2022-10-10T10:23:53.783Z,17.27264404
2022-10-10T10:24:54.987Z,17.28271484
2022-10-10T10:25:55.819Z,17.33306885
2022-10-10T10:26:56.581Z,17.35321045
2022-10-10T10:27:57.263Z,17.33306885
2022-10-10T10:28:58.829Z,17.33306885
2022-10-10T10:29:59.369Z,17.36328125
2022-10-10T10:31:00.038Z,17.36328125
2022-10-10T10:32:00.741Z,17.33306885
2022-10-10T10:33:01.489Z,17.32299805
2022-10-10T10:34:03.051Z,17.28271484
2022-10-10T10:35:03.595Z,17.28271484
2022-10-10T10:36:04.928Z,17.27264404
2022-10-10T10:37:05.627Z,17.27264404
2022-10-10T10:38:06.398Z,17.28271484
2022-10-10T10:39:07.086Z,17.30285645
2022-10-10T10:40:07.569Z,17.32299805
2022-10-10T10:41:08.228Z,17.32299805
2022-10-10T10:42:08.952Z,17.35321045
2022-10-10T10:43:09.649Z,17.36328125
2022-10-10T10:44:10.358Z,17.35321045
2022-10-10T10:45:11.809Z,17.38342285
2022-10-10T10:46:12.313Z,17.38342285
2022-10-10T10:47:13.021Z,17.39349365
2022-10-10T10:48:13.704Z,17.39349365
2022-10-10T10:49:14.524Z,17.36328125
2022-10-10T10:50:16.013Z,17.33306885
2022-10-10T10:51:46.925Z,17.33306885
2022-10-10T10:52:47.627Z,17.32299805
2022-10-10T10:53:49.074Z,17.30285645
2022-10-10T10:54:49.908Z,17.30285645
2022-10-10T10:55:51.375Z,17.28271484
2022-10-10T10:56:51.948Z,17.25250244
2022-10-10T10:58:05.116Z,17.24243164
2022-10-10T10:59:30.289Z,17.21221924
2022-10-10T11:00:26.173Z,17.21221924
2022-10-10T11:01:23.497Z,17.21221924
2022-10-10T11:01:58.103Z,17.21221924
2022-10-10T11:03:06.042Z,17.21221924
2022-10-10T11:05:20.539Z,17.20214844
2022-10-10T11:05:20.602Z,17.22229004
2022-10-10T11:05:59.387Z,17.21221924